Página principal
METAR-TAF:

METAR-TAF

Aeroportos :

Kuala Terengganu, Malásia

latitude: 05-22-53N, longitude: 103-06-17E, altura: 6 m

Observação actual do tempo

O boletim foi feito há 23 minutos, às 05:00 UTC
Vento 6 kt com direcção variável
Temperatura 30°C
Humidade 75%
Pressão 1014 hPa
Visibilidade 10 km ou mais
Nuvens dispersasa uma altura de 1800 ft

METAR: WMKN 230500Z VRB06KT 9999 SCT018 30/25 Q1014

Hora: 13:23 (05:23 UTC)

Previsão

O boletim foi feito há 6 horas e 23 minutos, às 23:00 UTC
Previsão válida de 23 às 00 UTC a 24 às 00 UTC
Vento 3 kt com direcção variável
Visibilidade 10 km ou mais
Poucas nuvensa uma altura de 1800 ft
Tornando-se
de 23 às 04 UTC a 23 às 06 UTC
Vento 6 kt de es-nordeste

TAF: WMKN 222300Z 2300/2400 VRB03KT 9999 FEW018 BECMG 2304/2306 06006KT

Observações e previsões do tempo de mais de 4000 aeroportos (mensagens METAR e TAF).

As estações disponíveis são os pontos amarelos e vermelhos sobre o mapa.

Mova o rato sobre o mapa para ver o nome da estação.

Depois clique no ponto para visualizar as observações e previsões meteorológicas.

Para alterar o mapa : clique nos botões verdes com uma cruz preta para aumentar o zoom; no botão verde com uma pitada de zoom; ou nas setas verdes para mapas adjacentes.


METAR-TAF: